Preston, Washington
Current Conditions -  °F | °C
As of 6:53 AM on Saturday 20 Dec 2014 (Local Time) from KRNT Reporting Station
Light Rain Light Rain  
Wind Chill: 42°   Ceiling: 4400
Heat Index: 46°   Visibility: 4mi
Dew Point: 43°   Wind: 7mph
Humidity: 89%   Direction: 90°E
Pressure: 29.66"   Gusts: NA
Location:  47.52°N, 121.93°W
Report Text: KRNT 201453Z 09006KT 4SM -RA BR OVC044 08/06 A2966 RMK AO2 SLP049 P0010 60013 T00780061 56026 $
Loading
Personal Weather Stations






























Interactive Weather Map New forecast layout! Learn more

10-Day Weather Forecast

Advertisements
Track Severe Weather on mobile